createdAt,value
2019-04-30T00:00:15.823Z,9.76
2019-04-30T00:02:45.666Z,9.76
2019-04-30T00:05:15.158Z,9.77
2019-04-30T00:07:46.224Z,9.78
2019-04-30T00:10:16.597Z,9.79
2019-04-30T00:12:45.333Z,9.59
2019-04-30T00:15:16.175Z,9.74
2019-04-30T00:17:46.016Z,9.77
2019-04-30T00:20:15.091Z,9.75
2019-04-30T00:22:47.087Z,9.74
2019-04-30T00:25:15.375Z,9.75
2019-04-30T00:27:45.602Z,9.74
2019-04-30T00:30:15.457Z,9.49
2019-04-30T00:32:46.923Z,9.72
2019-04-30T00:35:16.166Z,9.72
2019-04-30T00:37:44.938Z,9.72
2019-04-30T00:40:15.363Z,9.73
2019-04-30T00:42:45.776Z,9.70
2019-04-30T00:45:15.454Z,9.69
2019-04-30T00:47:47.882Z,9.69
2019-04-30T00:50:15.587Z,9.66
2019-04-30T00:52:45.671Z,9.64
2019-04-30T00:55:15.861Z,9.61
2019-04-30T00:57:47.384Z,9.63
2019-04-30T01:00:19.612Z,9.60
2019-04-30T01:02:50.062Z,9.62
2019-04-30T01:05:22.108Z,9.61
2019-04-30T01:07:51.933Z,9.60
2019-04-30T01:10:24.791Z,9.57
2019-04-30T01:12:51.098Z,9.60
2019-04-30T01:15:19.491Z,9.60
2019-04-30T01:17:51.016Z,9.58
2019-04-30T01:20:19.452Z,9.58
2019-04-30T01:22:49.590Z,9.57
2019-04-30T01:25:18.998Z,9.56
2019-04-30T01:27:49.181Z,9.58
2019-04-30T01:30:22.890Z,9.57
2019-04-30T01:32:56.642Z,9.56
2019-04-30T01:35:23.791Z,9.54
2019-04-30T01:37:52.097Z,9.54
2019-04-30T01:40:20.530Z,9.55
2019-04-30T01:42:51.661Z,9.55
2019-04-30T01:45:23.195Z,9.54
2019-04-30T01:47:49.683Z,9.54
2019-04-30T01:50:19.414Z,9.54
2019-04-30T01:52:53.974Z,9.56
2019-04-30T01:55:29.472Z,9.58
2019-04-30T01:58:04.938Z,9.57
2019-04-30T02:00:35.059Z,9.57
2019-04-30T02:03:22.505Z,9.56
2019-04-30T02:05:52.417Z,9.42
2019-04-30T02:08:20.905Z,9.59
2019-04-30T02:10:51.343Z,9.59
2019-04-30T02:13:19.625Z,9.60
2019-04-30T02:15:49.241Z,9.61
2019-04-30T02:18:19.530Z,9.63
2019-04-30T02:20:49.711Z,9.63
2019-04-30T02:23:19.592Z,9.63
2019-04-30T02:25:49.897Z,9.61
2019-04-30T02:28:18.979Z,9.61
2019-04-30T02:30:50.506Z,9.62
2019-04-30T02:33:19.792Z,9.62
2019-04-30T02:35:52.829Z,9.61
2019-04-30T02:38:30.017Z,9.60
2019-04-30T02:41:00.072Z,9.58
2019-04-30T02:43:31.823Z,9.56
2019-04-30T02:46:02.048Z,9.56
2019-04-30T02:48:32.601Z,9.54
2019-04-30T02:51:03.519Z,9.55
2019-04-30T02:53:53.061Z,9.56
2019-04-30T02:56:26.293Z,9.53
2019-04-30T02:58:53.309Z,9.49
2019-04-30T03:01:21.904Z,9.47
2019-04-30T03:03:50.514Z,9.47
2019-04-30T03:06:20.348Z,9.46
2019-04-30T03:08:51.749Z,9.45
2019-04-30T03:11:20.843Z,9.44
2019-04-30T03:13:49.915Z,9.42
2019-04-30T03:16:20.701Z,9.41
2019-04-30T03:18:54.160Z,9.40
2019-04-30T03:21:42.301Z,9.42
2019-04-30T03:24:11.552Z,9.43
2019-04-30T03:26:40.450Z,9.42
2019-04-30T03:29:11.077Z,9.44
2019-04-30T03:31:44.454Z,9.43
2019-04-30T03:34:16.711Z,9.43
2019-04-30T03:36:40.625Z,9.44
2019-04-30T03:39:10.899Z,9.45
2019-04-30T03:41:41.251Z,9.45
2019-04-30T03:44:20.902Z,9.44
2019-04-30T03:46:41.622Z,9.42
2019-04-30T03:49:12.966Z,9.41
2019-04-30T03:51:40.606Z,9.41
2019-04-30T03:54:10.128Z,9.39
2019-04-30T03:56:40.144Z,9.18
2019-04-30T03:59:10.702Z,9.37
2019-04-30T04:01:44.175Z,9.38
2019-04-30T04:04:20.226Z,9.39
2019-04-30T04:06:50.566Z,9.39
2019-04-30T04:09:23.813Z,9.38
2019-04-30T04:11:52.499Z,9.36
2019-04-30T04:14:21.021Z,9.33
2019-04-30T04:16:50.932Z,9.31
2019-04-30T04:19:19.835Z,9.31
2019-04-30T04:21:50.722Z,9.32
2019-04-30T04:24:20.409Z,9.34
2019-04-30T04:26:50.249Z,9.33
2019-04-30T04:29:19.688Z,9.32
2019-04-30T04:31:50.227Z,9.30
2019-04-30T04:34:20.068Z,9.27
2019-04-30T04:36:50.481Z,9.26
2019-04-30T04:39:20.064Z,9.24
2019-04-30T04:41:50.242Z,9.24
2019-04-30T04:44:20.276Z,9.27
2019-04-30T04:46:50.352Z,9.27
2019-04-30T04:49:20.768Z,9.28
2019-04-30T04:51:49.380Z,9.31
2019-04-30T04:54:19.960Z,9.34
2019-04-30T04:56:50.391Z,9.39
2019-04-30T04:59:20.113Z,9.45
2019-04-30T05:01:50.537Z,9.50
2019-04-30T05:04:20.181Z,9.55
2019-04-30T05:06:49.878Z,9.59
2019-04-30T05:09:19.507Z,9.64
2019-04-30T05:11:48.787Z,9.74
2019-04-30T05:14:19.179Z,9.79
2019-04-30T05:16:48.822Z,9.84
2019-04-30T05:19:18.655Z,9.87
2019-04-30T05:21:47.203Z,9.92
2019-04-30T05:24:15.644Z,9.98
2019-04-30T05:26:44.082Z,10.02
2019-04-30T05:29:12.483Z,10.03
2019-04-30T05:31:40.936Z,10.00
2019-04-30T05:34:10.310Z,10.01
2019-04-30T05:36:39.267Z,10.01
2019-04-30T05:39:08.675Z,10.06
2019-04-30T05:41:38.619Z,10.09
2019-04-30T05:44:08.904Z,10.13
2019-04-30T05:46:39.646Z,10.19
2019-04-30T05:49:09.213Z,10.25
2019-04-30T05:51:38.790Z,10.33
2019-04-30T05:54:09.089Z,10.47
2019-04-30T05:56:39.841Z,10.56
2019-04-30T05:59:09.016Z,10.70
2019-04-30T06:01:39.364Z,10.80
2019-04-30T06:04:09.405Z,10.97
2019-04-30T06:06:38.892Z,11.04
2019-04-30T06:09:30.989Z,11.13
2019-04-30T06:12:10.840Z,11.24
2019-04-30T06:14:48.409Z,11.24
2019-04-30T06:17:10.796Z,11.36
2019-04-30T06:19:39.316Z,11.50
2019-04-30T06:22:10.510Z,11.66
2019-04-30T06:24:39.574Z,11.79
2019-04-30T06:27:10.557Z,11.80
2019-04-30T06:29:39.455Z,11.83
2019-04-30T06:32:08.719Z,11.89
2019-04-30T06:34:41.634Z,12.01
2019-04-30T06:37:09.685Z,11.99
2019-04-30T06:39:38.757Z,11.98
2019-04-30T06:42:12.471Z,11.95
2019-04-30T06:44:41.387Z,11.74
2019-04-30T06:47:09.164Z,11.66
2019-04-30T06:49:39.258Z,11.62
2019-04-30T06:52:19.524Z,11.51
2019-04-30T06:54:39.302Z,11.47
2019-04-30T06:57:09.749Z,11.55
2019-04-30T06:59:39.614Z,11.60
2019-04-30T07:02:09.010Z,11.67
2019-04-30T07:04:40.027Z,11.77
2019-04-30T07:07:09.104Z,11.85
2019-04-30T07:09:54.585Z,11.78
2019-04-30T07:12:28.005Z,11.82
2019-04-30T07:14:59.063Z,11.84
2019-04-30T07:17:29.103Z,11.80
2019-04-30T07:19:59.514Z,11.73
2019-04-30T07:22:39.720Z,11.72
2019-04-30T07:24:59.760Z,11.67
2019-04-30T07:27:31.947Z,11.65
2019-04-30T07:29:59.735Z,11.59
2019-04-30T07:32:28.762Z,11.53
2019-04-30T07:34:59.473Z,11.58
2019-04-30T07:37:29.245Z,11.60
2019-04-30T07:39:58.948Z,11.65
2019-04-30T07:42:29.461Z,11.72
2019-04-30T07:45:00.739Z,11.89
2019-04-30T07:47:29.535Z,12.03
2019-04-30T07:50:00.637Z,12.04
2019-04-30T07:52:33.318Z,12.01
2019-04-30T07:55:00.846Z,12.04
2019-04-30T07:57:32.490Z,12.13
2019-04-30T08:00:00.702Z,12.26
2019-04-30T08:02:36.960Z,12.43
2019-04-30T08:05:10.541Z,12.63
2019-04-30T08:07:39.313Z,12.88
2019-04-30T08:10:08.852Z,13.11
2019-04-30T08:12:42.687Z,13.26
2019-04-30T08:15:09.701Z,13.42
2019-04-30T08:17:38.922Z,13.50
2019-04-30T08:20:08.766Z,13.57
2019-04-30T08:22:40.830Z,13.70
2019-04-30T08:25:09.625Z,13.82
2019-04-30T08:27:39.292Z,13.76
2019-04-30T08:30:21.276Z,13.68
2019-04-30T08:32:39.342Z,13.63
2019-04-30T08:35:09.920Z,13.72
2019-04-30T08:37:38.602Z,13.98
2019-04-30T08:40:08.671Z,14.18
2019-04-30T08:42:39.768Z,14.54
2019-04-30T08:45:09.509Z,14.61
2019-04-30T08:47:39.311Z,14.66
2019-04-30T08:50:09.747Z,14.74
2019-04-30T08:52:39.456Z,15.04
2019-04-30T08:55:16.023Z,14.93
2019-04-30T08:57:39.559Z,15.18
2019-04-30T09:00:11.774Z,15.40
2019-04-30T09:02:40.951Z,15.53
2019-04-30T09:05:11.434Z,15.35
2019-04-30T09:07:41.527Z,14.85
2019-04-30T09:10:10.241Z,14.57
2019-04-30T09:12:39.967Z,14.62
2019-04-30T09:15:09.249Z,14.99
2019-04-30T09:17:38.605Z,15.28
2019-04-30T09:20:09.118Z,14.77
2019-04-30T09:22:39.342Z,14.74
2019-04-30T09:25:09.324Z,14.96
2019-04-30T09:27:39.652Z,15.24
2019-04-30T09:30:10.368Z,15.45
2019-04-30T09:32:39.043Z,15.71
2019-04-30T09:35:09.607Z,15.80
2019-04-30T09:37:39.029Z,15.98
2019-04-30T09:40:16.202Z,16.21
2019-04-30T09:42:39.485Z,16.37
2019-04-30T09:45:08.802Z,16.61
2019-04-30T09:47:37.544Z,16.77
2019-04-30T09:50:06.619Z,17.01
2019-04-30T09:52:36.825Z,16.95
2019-04-30T09:55:09.419Z,17.06
2019-04-30T09:57:39.025Z,17.14
2019-04-30T10:00:09.819Z,17.19
2019-04-30T10:02:38.969Z,17.19
2019-04-30T10:05:10.181Z,17.21
2019-04-30T10:07:39.740Z,17.20
2019-04-30T10:10:11.474Z,17.50
2019-04-30T10:12:40.496Z,17.62
2019-04-30T10:15:10.948Z,17.55
2019-04-30T10:17:44.072Z,17.44
2019-04-30T10:20:13.992Z,17.25
2019-04-30T10:22:43.926Z,17.42
2019-04-30T10:25:12.989Z,17.84
2019-04-30T10:27:41.636Z,18.00
2019-04-30T10:30:11.662Z,17.99
2019-04-30T10:32:40.121Z,18.20
2019-04-30T10:35:08.686Z,18.12
2019-04-30T10:37:38.763Z,18.12
2019-04-30T10:40:10.533Z,18.22
2019-04-30T10:42:39.345Z,18.24
2019-04-30T10:45:09.825Z,18.21
2019-04-30T10:47:39.314Z,18.25
2019-04-30T10:50:10.048Z,18.17
2019-04-30T10:52:39.350Z,18.22
2019-04-30T10:55:09.400Z,18.16
2019-04-30T10:57:39.650Z,18.16
2019-04-30T11:00:13.905Z,18.33
2019-04-30T11:02:42.679Z,18.31
2019-04-30T11:05:12.385Z,18.29
2019-04-30T11:07:40.874Z,18.27
2019-04-30T11:10:10.893Z,18.38
2019-04-30T11:12:40.822Z,18.36
2019-04-30T11:15:09.599Z,18.25
2019-04-30T11:17:39.692Z,18.22
2019-04-30T11:20:10.360Z,18.30
2019-04-30T11:22:39.153Z,18.48
2019-04-30T11:25:10.062Z,18.61
2019-04-30T11:27:40.765Z,18.48
2019-04-30T11:30:20.418Z,18.44
2019-04-30T11:32:39.991Z,18.43
2019-04-30T11:35:09.012Z,18.41
2019-04-30T11:37:37.513Z,18.58
2019-04-30T11:40:08.403Z,18.61
2019-04-30T11:42:36.976Z,18.60
2019-04-30T11:45:08.576Z,18.71
2019-04-30T11:47:38.260Z,18.72
2019-04-30T11:50:09.594Z,18.59
2019-04-30T11:52:38.044Z,18.42
2019-04-30T11:55:09.701Z,18.36
2019-04-30T11:57:39.781Z,18.39
2019-04-30T12:00:13.507Z,18.71
2019-04-30T12:02:43.557Z,18.98
2019-04-30T12:05:13.889Z,18.97
2019-04-30T12:07:53.033Z,19.07
2019-04-30T12:10:23.170Z,19.00
2019-04-30T12:12:51.758Z,19.02
2019-04-30T12:15:20.159Z,19.02
2019-04-30T12:17:50.099Z,19.09
2019-04-30T12:20:19.659Z,18.97
2019-04-30T12:22:49.320Z,18.94
2019-04-30T12:25:18.677Z,18.97
2019-04-30T12:27:48.796Z,18.92
2019-04-30T12:30:20.527Z,18.88
2019-04-30T12:32:49.339Z,19.06
2019-04-30T12:35:19.601Z,19.32
2019-04-30T12:37:50.867Z,19.24
2019-04-30T12:40:28.561Z,19.26
2019-04-30T12:42:48.799Z,19.01
2019-04-30T12:45:19.339Z,18.86
2019-04-30T12:47:49.123Z,19.03
2019-04-30T12:50:19.861Z,19.03
2019-04-30T12:52:52.630Z,19.14
2019-04-30T12:55:39.218Z,19.06
2019-04-30T12:58:09.767Z,19.01
2019-04-30T13:00:39.774Z,19.03
2019-04-30T13:03:08.254Z,19.18
2019-04-30T13:05:36.641Z,19.18
2019-04-30T13:08:05.698Z,19.37
2019-04-30T13:10:35.144Z,19.41
2019-04-30T13:13:04.774Z,19.48
2019-04-30T13:15:34.942Z,19.48
2019-04-30T13:18:04.678Z,19.35
2019-04-30T13:20:33.261Z,19.37
2019-04-30T13:23:01.660Z,19.34
2019-04-30T13:25:35.352Z,19.28
2019-04-30T13:28:01.924Z,19.17
2019-04-30T13:30:32.035Z,19.20
2019-04-30T13:33:13.986Z,19.21
2019-04-30T13:35:42.391Z,19.28
2019-04-30T13:38:12.634Z,19.31
2019-04-30T13:40:54.650Z,19.37
2019-04-30T13:43:30.495Z,19.40
2019-04-30T13:46:01.014Z,19.44
2019-04-30T13:48:29.408Z,19.45
2019-04-30T13:50:57.932Z,19.57
2019-04-30T13:53:27.983Z,19.57
2019-04-30T13:55:58.960Z,19.59
2019-04-30T13:58:27.742Z,19.53
2019-04-30T14:00:56.172Z,19.55
2019-04-30T14:03:42.422Z,19.49
2019-04-30T14:06:13.096Z,19.40
2019-04-30T14:08:48.921Z,19.45
2019-04-30T14:11:19.044Z,19.34
2019-04-30T14:13:47.550Z,19.34
2019-04-30T14:16:16.071Z,19.28
2019-04-30T14:18:44.756Z,19.34
2019-04-30T14:21:13.324Z,19.27
2019-04-30T14:23:41.829Z,19.33
2019-04-30T14:26:10.423Z,19.26
2019-04-30T14:28:39.146Z,19.18
2019-04-30T14:31:08.109Z,19.19
2019-04-30T14:33:36.724Z,19.16
2019-04-30T14:36:05.157Z,19.11
2019-04-30T14:38:33.531Z,19.00
2019-04-30T14:41:02.767Z,19.04
2019-04-30T14:43:39.073Z,18.98
2019-04-30T14:46:10.278Z,18.95
2019-04-30T14:49:00.625Z,18.91
2019-04-30T14:51:29.519Z,18.92
2019-04-30T14:53:59.569Z,18.98
2019-04-30T14:56:32.339Z,18.90
2019-04-30T14:59:11.462Z,18.71
2019-04-30T15:01:41.521Z,18.62
2019-04-30T15:04:10.092Z,18.62
2019-04-30T15:06:38.627Z,18.55
2019-04-30T15:11:58.535Z,18.41
2019-04-30T15:14:26.631Z,18.32
2019-04-30T15:16:55.129Z,18.26
2019-04-30T15:19:23.632Z,18.16
2019-04-30T15:21:52.297Z,18.07
2019-04-30T15:24:24.239Z,17.95
2019-04-30T15:26:57.810Z,17.87
2019-04-30T15:29:22.851Z,17.82
2019-04-30T15:31:51.245Z,17.77
2019-04-30T15:34:19.917Z,17.72
2019-04-30T15:36:51.479Z,17.68
2019-04-30T15:39:21.866Z,17.66
2019-04-30T15:41:50.779Z,17.68
2019-04-30T15:44:19.274Z,17.68
2019-04-30T15:46:49.974Z,17.66
2019-04-30T15:49:18.361Z,17.63
2019-04-30T15:51:48.271Z,17.57
2019-04-30T15:54:19.004Z,17.55
2019-04-30T15:56:49.002Z,17.52
2019-04-30T15:59:39.376Z,17.51
2019-04-30T16:02:15.156Z,17.42
2019-04-30T16:05:01.134Z,17.38
2019-04-30T16:07:29.638Z,17.32
2019-04-30T16:10:05.308Z,17.29
2019-04-30T16:12:53.559Z,17.26
2019-04-30T16:15:22.078Z,17.25
2019-04-30T16:17:52.104Z,17.27
2019-04-30T16:20:22.008Z,17.30
2019-04-30T16:22:50.486Z,17.29
2019-04-30T16:25:19.396Z,17.29
2019-04-30T16:27:48.553Z,17.25
2019-04-30T16:30:17.181Z,17.19
2019-04-30T16:32:45.580Z,17.14
2019-04-30T16:35:14.124Z,17.11
2019-04-30T16:37:42.621Z,17.10
2019-04-30T16:40:11.600Z,17.13
2019-04-30T16:42:39.990Z,17.15
2019-04-30T16:45:09.399Z,17.13
2019-04-30T16:47:38.067Z,17.08
2019-04-30T16:50:08.995Z,17.04
2019-04-30T16:52:39.380Z,17.01
2019-04-30T16:55:08.158Z,16.96
2019-04-30T16:57:36.625Z,16.98
2019-04-30T17:00:09.392Z,16.92
2019-04-30T17:02:39.402Z,16.84
2019-04-30T17:05:26.075Z,16.78
2019-04-30T17:08:01.929Z,16.75
2019-04-30T17:10:31.925Z,16.76
2019-04-30T17:13:13.881Z,16.68
2019-04-30T17:15:44.029Z,16.56
2019-04-30T17:18:12.428Z,16.47
2019-04-30T17:20:42.599Z,16.41
2019-04-30T17:23:11.106Z,16.28
2019-04-30T17:25:39.709Z,16.21
2019-04-30T17:28:09.172Z,16.17
2019-04-30T17:30:39.190Z,16.18
2019-04-30T17:33:09.454Z,16.16
2019-04-30T17:35:38.761Z,16.09
2019-04-30T17:38:07.760Z,15.99
2019-04-30T17:40:36.300Z,15.88
2019-04-30T17:43:07.825Z,15.76
2019-04-30T17:45:36.239Z,15.61
2019-04-30T17:48:04.855Z,15.45
2019-04-30T17:50:33.303Z,15.35
2019-04-30T17:53:01.680Z,15.26
2019-04-30T17:55:30.109Z,15.27
2019-04-30T17:57:59.994Z,15.20
2019-04-30T18:00:30.156Z,15.11
2019-04-30T18:02:58.563Z,15.04
2019-04-30T18:05:29.151Z,14.93
2019-04-30T18:07:57.234Z,14.89
2019-04-30T18:10:25.622Z,14.82
2019-04-30T18:12:54.003Z,14.79
2019-04-30T18:15:24.032Z,14.73
2019-04-30T18:18:02.670Z,14.66
2019-04-30T18:20:39.208Z,14.55
2019-04-30T18:23:25.638Z,14.43
2019-04-30T18:26:01.953Z,14.31
2019-04-30T18:28:30.311Z,14.15
2019-04-30T18:30:59.095Z,14.00
2019-04-30T18:33:27.887Z,13.85
2019-04-30T18:35:56.279Z,13.70
2019-04-30T18:38:24.654Z,13.54
2019-04-30T18:40:53.160Z,13.40
2019-04-30T18:43:21.737Z,13.26
2019-04-30T18:45:50.199Z,13.11
2019-04-30T18:48:20.117Z,12.97
2019-04-30T18:50:48.627Z,12.84
2019-04-30T18:53:24.649Z,12.70
2019-04-30T18:55:53.122Z,12.58
2019-04-30T18:58:21.559Z,12.46
2019-04-30T19:00:50.032Z,12.35
2019-04-30T19:03:21.558Z,12.24
2019-04-30T19:05:51.786Z,12.13
2019-04-30T19:08:30.510Z,12.03
2019-04-30T19:11:06.284Z,11.92
2019-04-30T19:13:50.974Z,11.80
2019-04-30T19:16:25.236Z,11.70
2019-04-30T19:19:03.622Z,11.59
2019-04-30T19:21:32.073Z,11.50
2019-04-30T19:24:00.467Z,11.39
2019-04-30T19:26:30.459Z,11.30
2019-04-30T19:28:58.952Z,11.22
2019-04-30T19:31:30.235Z,11.15
2019-04-30T19:33:58.949Z,11.07
2019-04-30T19:36:34.913Z,11.01
2019-04-30T19:38:59.757Z,10.93
2019-04-30T19:41:28.828Z,10.88
2019-04-30T19:43:57.350Z,10.81
2019-04-30T19:46:25.724Z,10.76
2019-04-30T19:48:54.888Z,10.71
2019-04-30T19:51:23.295Z,10.65
2019-04-30T19:53:51.664Z,10.58
2019-04-30T19:56:23.391Z,10.53
2019-04-30T19:59:01.593Z,10.47
2019-04-30T20:01:22.339Z,10.41
2019-04-30T20:03:50.989Z,10.36
2019-04-30T20:06:19.604Z,10.32
2019-04-30T20:08:48.093Z,10.27
2019-04-30T20:11:16.548Z,10.17
2019-04-30T20:13:45.297Z,10.17
2019-04-30T20:16:13.744Z,10.13
2019-04-30T20:18:42.315Z,10.10
2019-04-30T20:21:27.579Z,10.05
2019-04-30T20:23:46.876Z,10.00
2019-04-30T20:26:15.373Z,9.95
2019-04-30T20:28:43.758Z,9.92
2019-04-30T20:31:12.428Z,9.88
2019-04-30T20:33:40.809Z,9.83
2019-04-30T20:36:10.819Z,9.77
2019-04-30T20:38:42.358Z,9.70
2019-04-30T20:41:12.196Z,9.65
2019-04-30T20:43:40.663Z,9.58
2019-04-30T20:46:09.127Z,9.53
2019-04-30T20:48:41.174Z,9.47
2019-04-30T20:51:09.865Z,9.43
2019-04-30T20:53:39.109Z,9.37
2019-04-30T20:56:09.350Z,9.30
2019-04-30T20:58:39.083Z,9.26
2019-04-30T21:01:09.577Z,9.22
2019-04-30T21:03:40.571Z,9.18
2019-04-30T21:06:09.009Z,9.12
2019-04-30T21:08:37.382Z,9.09
2019-04-30T21:11:05.802Z,9.04
2019-04-30T21:13:34.236Z,8.98
2019-04-30T21:16:03.096Z,8.93
2019-04-30T21:18:32.537Z,8.87
2019-04-30T21:21:01.132Z,8.82
2019-04-30T21:23:29.513Z,8.77
2019-04-30T21:25:58.890Z,8.74
2019-04-30T21:28:29.515Z,8.71
2019-04-30T21:30:59.266Z,8.68
2019-04-30T21:33:31.898Z,8.63
2019-04-30T21:36:08.776Z,8.61
2019-04-30T21:38:38.956Z,8.58
2019-04-30T21:41:09.820Z,8.55
2019-04-30T21:43:37.701Z,8.58
2019-04-30T21:46:06.102Z,8.58
2019-04-30T21:48:34.474Z,8.58
2019-04-30T21:51:02.892Z,8.54
2019-04-30T21:53:32.853Z,8.49
2019-04-30T21:56:02.786Z,8.47
2019-04-30T21:58:31.183Z,8.42
2019-04-30T22:01:11.299Z,8.40
2019-04-30T22:03:41.217Z,8.37
2019-04-30T22:06:10.650Z,8.35
2019-04-30T22:08:39.321Z,8.32
2019-04-30T22:11:09.603Z,8.27
2019-04-30T22:13:43.093Z,8.23
2019-04-30T22:16:10.282Z,8.23
2019-04-30T22:18:38.848Z,8.26
2019-04-30T22:21:07.245Z,8.27
2019-04-30T22:23:35.613Z,8.28
2019-04-30T22:26:04.542Z,8.29
2019-04-30T22:28:32.917Z,8.17
2019-04-30T22:31:01.364Z,8.31
2019-04-30T22:33:31.241Z,8.28
2019-04-30T22:36:10.803Z,8.26
2019-04-30T22:38:52.603Z,8.37
2019-04-30T22:41:25.610Z,8.34
2019-04-30T22:43:53.998Z,8.29
2019-04-30T22:46:22.407Z,8.21
2019-04-30T22:48:50.781Z,8.14
2019-04-30T22:51:19.248Z,8.06
2019-04-30T22:53:47.594Z,7.99
2019-04-30T22:56:16.002Z,7.97
2019-04-30T22:58:44.373Z,7.89
2019-04-30T23:01:30.290Z,7.83
2019-04-30T23:04:06.118Z,7.78
2019-04-30T23:06:38.721Z,7.72
2019-04-30T23:09:11.368Z,7.65
2019-04-30T23:11:40.131Z,7.63
2019-04-30T23:14:08.506Z,7.63
2019-04-30T23:16:37.067Z,7.59
2019-04-30T23:19:05.516Z,7.55
2019-04-30T23:21:33.887Z,7.51
2019-04-30T23:24:02.477Z,7.48
2019-04-30T23:26:30.863Z,7.44
2019-04-30T23:28:59.243Z,7.39
2019-04-30T23:31:27.792Z,7.34
2019-04-30T23:33:56.149Z,7.29
2019-04-30T23:36:24.577Z,7.24
2019-04-30T23:38:52.943Z,7.22
2019-04-30T23:41:21.824Z,7.18
2019-04-30T23:43:50.198Z,7.16
2019-04-30T23:46:18.658Z,7.16
2019-04-30T23:48:47.040Z,7.13
2019-04-30T23:51:15.505Z,7.09
2019-04-30T23:53:43.984Z,7.18
2019-04-30T23:56:12.442Z,7.20
2019-04-30T23:58:40.931Z,7.20
